sensor_id;sensor_type;location;lat;lon;timestamp;P1;durP1;ratioP1;P2;durP2;ratioP2
16928;SDS011;8581;47.334;11.190;2023-07-02T00:00:25;6.37;;;5.87;;
16928;SDS011;8581;47.334;11.190;2023-07-02T00:02:58;6.80;;;5.80;;
16928;SDS011;8581;47.334;11.190;2023-07-02T00:05:28;7.17;;;6.50;;
16928;SDS011;8581;47.334;11.190;2023-07-02T00:08:00;6.37;;;5.80;;
16928;SDS011;8581;47.334;11.190;2023-07-02T00:10:32;6.60;;;6.00;;
16928;SDS011;8581;47.334;11.190;2023-07-02T00:13:03;7.40;;;6.20;;
16928;SDS011;8581;47.334;11.190;2023-07-02T00:15:35;7.50;;;6.80;;
16928;SDS011;8581;47.334;11.190;2023-07-02T00:18:06;6.83;;;6.23;;
16928;SDS011;8581;47.334;11.190;2023-07-02T00:20:38;6.37;;;5.77;;
16928;SDS011;8581;47.334;11.190;2023-07-02T00:23:10;6.80;;;6.27;;
16928;SDS011;8581;47.334;11.190;2023-07-02T00:25:41;6.67;;;6.07;;
16928;SDS011;8581;47.334;11.190;2023-07-02T00:28:13;6.47;;;5.97;;
16928;SDS011;8581;47.334;11.190;2023-07-02T00:30:44;7.03;;;6.40;;
16928;SDS011;8581;47.334;11.190;2023-07-02T00:33:16;6.50;;;5.80;;
16928;SDS011;8581;47.334;11.190;2023-07-02T00:35:48;6.80;;;6.10;;
16928;SDS011;8581;47.334;11.190;2023-07-02T00:38:19;6.43;;;5.93;;
16928;SDS011;8581;47.334;11.190;2023-07-02T00:40:51;6.17;;;5.67;;
16928;SDS011;8581;47.334;11.190;2023-07-02T00:43:22;6.97;;;6.33;;
16928;SDS011;8581;47.334;11.190;2023-07-02T00:45:54;6.57;;;6.07;;
16928;SDS011;8581;47.334;11.190;2023-07-02T00:48:25;6.13;;;5.53;;
16928;SDS011;8581;47.334;11.190;2023-07-02T00:50:57;6.80;;;6.20;;
16928;SDS011;8581;47.334;11.190;2023-07-02T00:53:29;6.67;;;5.97;;
16928;SDS011;8581;47.334;11.190;2023-07-02T00:56:01;7.03;;;6.43;;
16928;SDS011;8581;47.334;11.190;2023-07-02T00:58:33;6.47;;;5.90;;
16928;SDS011;8581;47.334;11.190;2023-07-02T01:01:04;6.73;;;5.93;;
16928;SDS011;8581;47.334;11.190;2023-07-02T01:03:35;6.17;;;5.67;;
16928;SDS011;8581;47.334;11.190;2023-07-02T01:06:07;6.13;;;5.50;;
16928;SDS011;8581;47.334;11.190;2023-07-02T01:08:38;6.33;;;5.73;;
16928;SDS011;8581;47.334;11.190;2023-07-02T01:11:10;5.83;;;5.33;;
16928;SDS011;8581;47.334;11.190;2023-07-02T01:13:41;5.47;;;5.03;;
16928;SDS011;8581;47.334;11.190;2023-07-02T01:16:13;5.70;;;5.20;;
16928;SDS011;8581;47.334;11.190;2023-07-02T01:18:45;5.33;;;4.83;;
16928;SDS011;8581;47.334;11.190;2023-07-02T01:21:16;5.20;;;4.70;;
16928;SDS011;8581;47.334;11.190;2023-07-02T01:23:49;4.73;;;4.33;;
16928;SDS011;8581;47.334;11.190;2023-07-02T01:26:21;4.73;;;4.30;;
16928;SDS011;8581;47.334;11.190;2023-07-02T01:28:53;5.27;;;4.80;;
16928;SDS011;8581;47.334;11.190;2023-07-02T01:31:24;4.87;;;4.47;;
16928;SDS011;8581;47.334;11.190;2023-07-02T01:33:56;4.67;;;4.27;;
16928;SDS011;8581;47.334;11.190;2023-07-02T01:36:28;4.63;;;4.23;;
16928;SDS011;8581;47.334;11.190;2023-07-02T01:39:00;5.70;;;5.20;;
16928;SDS011;8581;47.334;11.190;2023-07-02T01:41:36;5.60;;;5.10;;
16928;SDS011;8581;47.334;11.190;2023-07-02T01:44:18;5.50;;;5.00;;
16928;SDS011;8581;47.334;11.190;2023-07-02T01:46:50;5.20;;;4.80;;
16928;SDS011;8581;47.334;11.190;2023-07-02T01:49:21;5.33;;;4.83;;
16928;SDS011;8581;47.334;11.190;2023-07-02T01:51:53;5.23;;;4.83;;
16928;SDS011;8581;47.334;11.190;2023-07-02T01:54:25;4.80;;;4.40;;
16928;SDS011;8581;47.334;11.190;2023-07-02T01:56:59;5.47;;;4.93;;
16928;SDS011;8581;47.334;11.190;2023-07-02T01:59:30;5.70;;;5.20;;
16928;SDS011;8581;47.334;11.190;2023-07-02T02:02:02;6.00;;;5.50;;
16928;SDS011;8581;47.334;11.190;2023-07-02T02:04:34;5.33;;;4.93;;
16928;SDS011;8581;47.334;11.190;2023-07-02T02:07:05;5.07;;;4.67;;
16928;SDS011;8581;47.334;11.190;2023-07-02T02:09:37;5.87;;;5.30;;
16928;SDS011;8581;47.334;11.190;2023-07-02T02:12:08;6.17;;;5.57;;
16928;SDS011;8581;47.334;11.190;2023-07-02T02:14:40;6.77;;;6.17;;
16928;SDS011;8581;47.334;11.190;2023-07-02T02:17:12;6.83;;;6.20;;
16928;SDS011;8581;47.334;11.190;2023-07-02T02:19:43;6.97;;;5.90;;
16928;SDS011;8581;47.334;11.190;2023-07-02T02:22:15;6.90;;;6.30;;
16928;SDS011;8581;47.334;11.190;2023-07-02T02:24:46;7.00;;;6.30;;
16928;SDS011;8581;47.334;11.190;2023-07-02T02:27:18;5.90;;;5.40;;
16928;SDS011;8581;47.334;11.190;2023-07-02T02:29:50;6.20;;;5.70;;
16928;SDS011;8581;47.334;11.190;2023-07-02T02:32:21;6.07;;;5.57;;
16928;SDS011;8581;47.334;11.190;2023-07-02T02:34:53;6.00;;;5.33;;
16928;SDS011;8581;47.334;11.190;2023-07-02T02:37:24;5.67;;;5.23;;
16928;SDS011;8581;47.334;11.190;2023-07-02T02:39:56;5.70;;;5.17;;
16928;SDS011;8581;47.334;11.190;2023-07-02T02:42:28;6.50;;;5.70;;
16928;SDS011;8581;47.334;11.190;2023-07-02T02:44:59;4.97;;;4.57;;
16928;SDS011;8581;47.334;11.190;2023-07-02T02:47:31;4.97;;;4.57;;
16928;SDS011;8581;47.334;11.190;2023-07-02T02:50:03;4.67;;;4.17;;
16928;SDS011;8581;47.334;11.190;2023-07-02T02:52:35;5.93;;;4.03;;
16928;SDS011;8581;47.334;11.190;2023-07-02T02:55:09;4.80;;;4.40;;
16928;SDS011;8581;47.334;11.190;2023-07-02T02:57:39;5.30;;;4.80;;
16928;SDS011;8581;47.334;11.190;2023-07-02T03:00:11;5.03;;;4.53;;
16928;SDS011;8581;47.334;11.190;2023-07-02T03:02:43;3.57;;;3.27;;
16928;SDS011;8581;47.334;11.190;2023-07-02T03:05:16;3.87;;;3.47;;
16928;SDS011;8581;47.334;11.190;2023-07-02T03:07:47;3.03;;;2.83;;
16928;SDS011;8581;47.334;11.190;2023-07-02T03:10:19;3.73;;;3.43;;
16928;SDS011;8581;47.334;11.190;2023-07-02T03:12:50;4.00;;;3.70;;
16928;SDS011;8581;47.334;11.190;2023-07-02T03:15:22;3.97;;;3.67;;
16928;SDS011;8581;47.334;11.190;2023-07-02T03:17:54;4.00;;;3.60;;
16928;SDS011;8581;47.334;11.190;2023-07-02T03:20:25;4.67;;;4.20;;
16928;SDS011;8581;47.334;11.190;2023-07-02T03:22:57;4.33;;;4.03;;
16928;SDS011;8581;47.334;11.190;2023-07-02T03:25:28;4.60;;;3.87;;
16928;SDS011;8581;47.334;11.190;2023-07-02T03:28:00;5.90;;;3.97;;
16928;SDS011;8581;47.334;11.190;2023-07-02T03:30:32;4.37;;;3.97;;
16928;SDS011;8581;47.334;11.190;2023-07-02T03:33:03;35.53;;;32.13;;
16928;SDS011;8581;47.334;11.190;2023-07-02T03:35:35;7.70;;;7.00;;
16928;SDS011;8581;47.334;11.190;2023-07-02T03:38:06;4.53;;;4.13;;
16928;SDS011;8581;47.334;11.190;2023-07-02T03:40:38;3.70;;;3.40;;
16928;SDS011;8581;47.334;11.190;2023-07-02T03:43:10;3.87;;;3.47;;
16928;SDS011;8581;47.334;11.190;2023-07-02T03:45:41;3.53;;;3.23;;
16928;SDS011;8581;47.334;11.190;2023-07-02T03:48:13;3.30;;;3.10;;
16928;SDS011;8581;47.334;11.190;2023-07-02T03:50:44;5.03;;;4.63;;
16928;SDS011;8581;47.334;11.190;2023-07-02T03:53:16;4.43;;;4.03;;
16928;SDS011;8581;47.334;11.190;2023-07-02T03:55:47;4.57;;;4.17;;
16928;SDS011;8581;47.334;11.190;2023-07-02T03:58:19;6.03;;;5.53;;
16928;SDS011;8581;47.334;11.190;2023-07-02T04:00:51;5.10;;;4.60;;
16928;SDS011;8581;47.334;11.190;2023-07-02T04:03:22;3.60;;;3.30;;
16928;SDS011;8581;47.334;11.190;2023-07-02T04:05:54;3.37;;;3.17;;
16928;SDS011;8581;47.334;11.190;2023-07-02T04:08:25;4.87;;;3.40;;
16928;SDS011;8581;47.334;11.190;2023-07-02T04:10:57;3.30;;;3.10;;
16928;SDS011;8581;47.334;11.190;2023-07-02T04:13:29;3.60;;;3.30;;
16928;SDS011;8581;47.334;11.190;2023-07-02T04:16:00;3.60;;;3.30;;
16928;SDS011;8581;47.334;11.190;2023-07-02T04:18:32;3.20;;;3.00;;
16928;SDS011;8581;47.334;11.190;2023-07-02T04:21:03;3.70;;;3.40;;
16928;SDS011;8581;47.334;11.190;2023-07-02T04:23:35;3.50;;;3.20;;
16928;SDS011;8581;47.334;11.190;2023-07-02T04:26:07;4.03;;;3.67;;
16928;SDS011;8581;47.334;11.190;2023-07-02T04:28:38;4.23;;;3.93;;
16928;SDS011;8581;47.334;11.190;2023-07-02T04:31:10;4.10;;;3.80;;
16928;SDS011;8581;47.334;11.190;2023-07-02T04:33:41;3.47;;;3.00;;
16928;SDS011;8581;47.334;11.190;2023-07-02T04:36:13;3.57;;;3.27;;
16928;SDS011;8581;47.334;11.190;2023-07-02T04:38:45;3.50;;;3.13;;
16928;SDS011;8581;47.334;11.190;2023-07-02T04:41:17;5.23;;;3.13;;
16928;SDS011;8581;47.334;11.190;2023-07-02T04:43:48;3.23;;;2.93;;
16928;SDS011;8581;47.334;11.190;2023-07-02T04:46:19;3.30;;;3.00;;
16928;SDS011;8581;47.334;11.190;2023-07-02T04:48:51;3.03;;;2.80;;
16928;SDS011;8581;47.334;11.190;2023-07-02T04:51:23;3.57;;;3.27;;
16928;SDS011;8581;47.334;11.190;2023-07-02T04:53:54;3.40;;;3.10;;
16928;SDS011;8581;47.334;11.190;2023-07-02T04:56:26;4.23;;;3.27;;
16928;SDS011;8581;47.334;11.190;2023-07-02T04:58:57;3.33;;;2.70;;
16928;SDS011;8581;47.334;11.190;2023-07-02T05:01:29;4.77;;;3.00;;
16928;SDS011;8581;47.334;11.190;2023-07-02T05:04:01;2.73;;;2.53;;
16928;SDS011;8581;47.334;11.190;2023-07-02T05:06:32;3.33;;;3.03;;
16928;SDS011;8581;47.334;11.190;2023-07-02T05:09:04;3.10;;;2.80;;
16928;SDS011;8581;47.334;11.190;2023-07-02T05:11:35;3.50;;;3.00;;
16928;SDS011;8581;47.334;11.190;2023-07-02T05:14:07;3.93;;;3.23;;
16928;SDS011;8581;47.334;11.190;2023-07-02T05:16:38;3.50;;;3.13;;
16928;SDS011;8581;47.334;11.190;2023-07-02T05:19:10;4.60;;;3.57;;
16928;SDS011;8581;47.334;11.190;2023-07-02T05:21:42;3.30;;;3.00;;
16928;SDS011;8581;47.334;11.190;2023-07-02T05:24:13;3.70;;;3.40;;
16928;SDS011;8581;47.334;11.190;2023-07-02T05:26:45;3.30;;;3.03;;
16928;SDS011;8581;47.334;11.190;2023-07-02T05:29:16;3.40;;;3.00;;
16928;SDS011;8581;47.334;11.190;2023-07-02T05:31:48;2.87;;;2.67;;
16928;SDS011;8581;47.334;11.190;2023-07-02T05:34:20;3.00;;;2.80;;
16928;SDS011;8581;47.334;11.190;2023-07-02T05:36:51;3.40;;;3.10;;
16928;SDS011;8581;47.334;11.190;2023-07-02T05:39:23;3.30;;;3.00;;
16928;SDS011;8581;47.334;11.190;2023-07-02T05:41:54;2.90;;;2.70;;
16928;SDS011;8581;47.334;11.190;2023-07-02T05:44:26;4.40;;;2.77;;
16928;SDS011;8581;47.334;11.190;2023-07-02T05:46:58;3.57;;;2.97;;
16928;SDS011;8581;47.334;11.190;2023-07-02T05:49:29;4.07;;;3.27;;
16928;SDS011;8581;47.334;11.190;2023-07-02T05:52:01;3.07;;;2.80;;
16928;SDS011;8581;47.334;11.190;2023-07-02T05:54:32;2.63;;;2.43;;
16928;SDS011;8581;47.334;11.190;2023-07-02T05:57:04;2.63;;;2.43;;
16928;SDS011;8581;47.334;11.190;2023-07-02T05:59:37;2.40;;;2.20;;
16928;SDS011;8581;47.334;11.190;2023-07-02T06:02:07;3.70;;;2.40;;
16928;SDS011;8581;47.334;11.190;2023-07-02T06:04:39;2.43;;;2.23;;
16928;SDS011;8581;47.334;11.190;2023-07-02T06:07:10;2.30;;;2.10;;
16928;SDS011;8581;47.334;11.190;2023-07-02T06:09:42;2.17;;;1.97;;
16928;SDS011;8581;47.334;11.190;2023-07-02T06:12:14;2.17;;;1.97;;
16928;SDS011;8581;47.334;11.190;2023-07-02T06:14:45;2.60;;;2.40;;
16928;SDS011;8581;47.334;11.190;2023-07-02T06:17:17;2.37;;;2.17;;
16928;SDS011;8581;47.334;11.190;2023-07-02T06:19:48;2.30;;;2.10;;
16928;SDS011;8581;47.334;11.190;2023-07-02T06:22:20;3.63;;;2.10;;
16928;SDS011;8581;47.334;11.190;2023-07-02T06:24:52;2.40;;;2.20;;
16928;SDS011;8581;47.334;11.190;2023-07-02T06:27:23;2.20;;;2.00;;
16928;SDS011;8581;47.334;11.190;2023-07-02T06:29:55;2.00;;;1.80;;
16928;SDS011;8581;47.334;11.190;2023-07-02T06:32:26;2.30;;;2.10;;
16928;SDS011;8581;47.334;11.190;2023-07-02T06:34:58;2.03;;;1.90;;
16928;SDS011;8581;47.334;11.190;2023-07-02T06:37:29;1.87;;;1.77;;
16928;SDS011;8581;47.334;11.190;2023-07-02T06:40:01;1.77;;;1.67;;
16928;SDS011;8581;47.334;11.190;2023-07-02T06:42:33;1.93;;;1.80;;
16928;SDS011;8581;47.334;11.190;2023-07-02T06:45:05;1.80;;;1.70;;
16928;SDS011;8581;47.334;11.190;2023-07-02T06:47:37;1.93;;;1.80;;
16928;SDS011;8581;47.334;11.190;2023-07-02T06:50:09;2.73;;;1.87;;
16928;SDS011;8581;47.334;11.190;2023-07-02T06:52:40;3.67;;;1.87;;
16928;SDS011;8581;47.334;11.190;2023-07-02T06:55:12;1.80;;;1.70;;
16928;SDS011;8581;47.334;11.190;2023-07-02T06:57:44;1.47;;;1.37;;
16928;SDS011;8581;47.334;11.190;2023-07-02T07:00:16;1.73;;;1.60;;
16928;SDS011;8581;47.334;11.190;2023-07-02T07:02:47;1.57;;;1.47;;
16928;SDS011;8581;47.334;11.190;2023-07-02T07:05:19;1.80;;;1.70;;
16928;SDS011;8581;47.334;11.190;2023-07-02T07:07:51;1.60;;;1.50;;
16928;SDS011;8581;47.334;11.190;2023-07-02T07:10:22;1.20;;;1.10;;
16928;SDS011;8581;47.334;11.190;2023-07-02T07:12:54;2.23;;;1.67;;
16928;SDS011;8581;47.334;11.190;2023-07-02T07:15:25;2.15;;;1.50;;
16928;SDS011;8581;47.334;11.190;2023-07-02T07:17:57;1.53;;;1.43;;
16928;SDS011;8581;47.334;11.190;2023-07-02T07:20:29;2.60;;;1.40;;
16928;SDS011;8581;47.334;11.190;2023-07-02T07:23:01;2.03;;;1.50;;
16928;SDS011;8581;47.334;11.190;2023-07-02T07:25:32;1.35;;;1.25;;
16928;SDS011;8581;47.334;11.190;2023-07-02T07:28:03;1.27;;;1.17;;
16928;SDS011;8581;47.334;11.190;2023-07-02T07:30:35;2.97;;;1.40;;
16928;SDS011;8581;47.334;11.190;2023-07-02T07:33:07;3.00;;;1.25;;
16928;SDS011;8581;47.334;11.190;2023-07-02T07:35:38;2.65;;;1.25;;
16928;SDS011;8581;47.334;11.190;2023-07-02T07:38:10;1.30;;;1.20;;
16928;SDS011;8581;47.334;11.190;2023-07-02T07:40:42;1.30;;;1.20;;
16928;SDS011;8581;47.334;11.190;2023-07-02T07:43:14;1.65;;;1.30;;
16928;SDS011;8581;47.334;11.190;2023-07-02T07:45:45;1.30;;;1.20;;
16928;SDS011;8581;47.334;11.190;2023-07-02T07:48:17;1.50;;;1.40;;
16928;SDS011;8581;47.334;11.190;2023-07-02T07:50:49;1.02;;;1.02;;
16928;SDS011;8581;47.334;11.190;2023-07-02T07:53:20;2.22;;;1.15;;
16928;SDS011;8581;47.334;11.190;2023-07-02T07:55:52;1.35;;;1.22;;
16928;SDS011;8581;47.334;11.190;2023-07-02T07:58:23;1.00;;;1.00;;
16928;SDS011;8581;47.334;11.190;2023-07-02T08:00:55;1.67;;;1.00;;
16928;SDS011;8581;47.334;11.190;2023-07-02T08:03:27;1.22;;;1.10;;
16928;SDS011;8581;47.334;11.190;2023-07-02T08:05:59;0.90;;;0.90;;
16928;SDS011;8581;47.334;11.190;2023-07-02T08:08:31;1.42;;;1.10;;
16928;SDS011;8581;47.334;11.190;2023-07-02T08:11:03;1.15;;;1.10;;
16928;SDS011;8581;47.334;11.190;2023-07-02T08:13:34;1.02;;;1.02;;
16928;SDS011;8581;47.334;11.190;2023-07-02T08:16:06;0.98;;;0.90;;
16928;SDS011;8581;47.334;11.190;2023-07-02T08:18:38;1.42;;;1.02;;
16928;SDS011;8581;47.334;11.190;2023-07-02T08:21:10;0.95;;;0.95;;
16928;SDS011;8581;47.334;11.190;2023-07-02T08:23:42;1.95;;;1.05;;
16928;SDS011;8581;47.334;11.190;2023-07-02T08:26:14;1.05;;;1.00;;
16928;SDS011;8581;47.334;11.190;2023-07-02T08:28:46;1.20;;;1.10;;
16928;SDS011;8581;47.334;11.190;2023-07-02T08:31:18;0.90;;;0.90;;
16928;SDS011;8581;47.334;11.190;2023-07-02T08:33:49;2.83;;;1.00;;
16928;SDS011;8581;47.334;11.190;2023-07-02T08:36:21;0.65;;;0.65;;
16928;SDS011;8581;47.334;11.190;2023-07-02T08:38:53;1.22;;;0.80;;
16928;SDS011;8581;47.334;11.190;2023-07-02T08:41:24;0.80;;;0.80;;
16928;SDS011;8581;47.334;11.190;2023-07-02T08:43:56;1.10;;;1.00;;
16928;SDS011;8581;47.334;11.190;2023-07-02T08:46:27;0.80;;;0.80;;
16928;SDS011;8581;47.334;11.190;2023-07-02T08:48:59;0.62;;;0.62;;
16928;SDS011;8581;47.334;11.190;2023-07-02T08:51:31;0.93;;;0.80;;
16928;SDS011;8581;47.334;11.190;2023-07-02T08:54:02;0.70;;;0.70;;
16928;SDS011;8581;47.334;11.190;2023-07-02T08:56:34;0.82;;;0.82;;
16928;SDS011;8581;47.334;11.190;2023-07-02T08:59:07;0.70;;;0.70;;
16928;SDS011;8581;47.334;11.190;2023-07-02T09:04:17;0.68;;;0.68;;
16928;SDS011;8581;47.334;11.190;2023-07-02T09:07:02;1.22;;;0.70;;
16928;SDS011;8581;47.334;11.190;2023-07-02T09:09:23;0.80;;;0.80;;
16928;SDS011;8581;47.334;11.190;2023-07-02T09:11:54;0.68;;;0.68;;
16928;SDS011;8581;47.334;11.190;2023-07-02T09:14:28;0.50;;;0.50;;
16928;SDS011;8581;47.334;11.190;2023-07-02T09:17:02;0.55;;;0.55;;
16928;SDS011;8581;47.334;11.190;2023-07-02T09:19:34;1.72;;;0.75;;
16928;SDS011;8581;47.334;11.190;2023-07-02T09:22:05;1.12;;;0.98;;
16928;SDS011;8581;47.334;11.190;2023-07-02T09:24:37;0.75;;;0.75;;
16928;SDS011;8581;47.334;11.190;2023-07-02T09:27:08;0.68;;;0.68;;
16928;SDS011;8581;47.334;11.190;2023-07-02T09:29:40;0.70;;;0.70;;
16928;SDS011;8581;47.334;11.190;2023-07-02T09:32:22;0.55;;;0.55;;
16928;SDS011;8581;47.334;11.190;2023-07-02T09:34:46;0.57;;;0.57;;
16928;SDS011;8581;47.334;11.190;2023-07-02T09:37:18;0.57;;;0.57;;
16928;SDS011;8581;47.334;11.190;2023-07-02T09:39:51;0.60;;;0.60;;
16928;SDS011;8581;47.334;11.190;2023-07-02T09:42:28;0.70;;;0.70;;
16928;SDS011;8581;47.334;11.190;2023-07-02T09:45:00;0.65;;;0.65;;
16928;SDS011;8581;47.334;11.190;2023-07-02T09:47:31;0.75;;;0.75;;
16928;SDS011;8581;47.334;11.190;2023-07-02T09:50:04;0.72;;;0.60;;
16928;SDS011;8581;47.334;11.190;2023-07-02T09:52:36;0.75;;;0.60;;
16928;SDS011;8581;47.334;11.190;2023-07-02T09:55:08;0.62;;;0.62;;
16928;SDS011;8581;47.334;11.190;2023-07-02T09:57:40;0.50;;;0.50;;
16928;SDS011;8581;47.334;11.190;2023-07-02T10:00:12;0.55;;;0.55;;
16928;SDS011;8581;47.334;11.190;2023-07-02T10:02:48;0.95;;;0.68;;
16928;SDS011;8581;47.334;11.190;2023-07-02T10:05:25;1.20;;;0.62;;
16928;SDS011;8581;47.334;11.190;2023-07-02T10:07:57;0.60;;;0.60;;
16928;SDS011;8581;47.334;11.190;2023-07-02T10:10:29;1.20;;;0.93;;
16928;SDS011;8581;47.334;11.190;2023-07-02T10:13:00;0.50;;;0.50;;
16928;SDS011;8581;47.334;11.190;2023-07-02T10:15:32;0.70;;;0.70;;
16928;SDS011;8581;47.334;11.190;2023-07-02T10:18:03;0.60;;;0.60;;
16928;SDS011;8581;47.334;11.190;2023-07-02T10:20:36;0.55;;;0.55;;
16928;SDS011;8581;47.334;11.190;2023-07-02T10:23:07;0.50;;;0.50;;
16928;SDS011;8581;47.334;11.190;2023-07-02T10:25:38;1.85;;;0.50;;
16928;SDS011;8581;47.334;11.190;2023-07-02T10:28:16;0.60;;;0.60;;
16928;SDS011;8581;47.334;11.190;2023-07-02T10:30:46;0.60;;;0.60;;
16928;SDS011;8581;47.334;11.190;2023-07-02T10:33:18;0.53;;;0.53;;
16928;SDS011;8581;47.334;11.190;2023-07-02T10:35:49;0.50;;;0.50;;
16928;SDS011;8581;47.334;11.190;2023-07-02T10:38:22;0.60;;;0.60;;
16928;SDS011;8581;47.334;11.190;2023-07-02T10:40:54;0.60;;;0.60;;
16928;SDS011;8581;47.334;11.190;2023-07-02T10:43:27;0.70;;;0.70;;
16928;SDS011;8581;47.334;11.190;2023-07-02T10:45:58;0.80;;;0.53;;
16928;SDS011;8581;47.334;11.190;2023-07-02T10:48:31;0.50;;;0.50;;
16928;SDS011;8581;47.334;11.190;2023-07-02T10:51:10;0.62;;;0.60;;
16928;SDS011;8581;47.334;11.190;2023-07-02T10:53:34;0.75;;;0.75;;
16928;SDS011;8581;47.334;11.190;2023-07-02T10:56:05;2.05;;;0.70;;
16928;SDS011;8581;47.334;11.190;2023-07-02T10:58:42;0.57;;;0.57;;
16928;SDS011;8581;47.334;11.190;2023-07-02T11:01:13;0.60;;;0.60;;
16928;SDS011;8581;47.334;11.190;2023-07-02T11:03:45;0.98;;;0.62;;
16928;SDS011;8581;47.334;11.190;2023-07-02T11:06:17;0.50;;;0.50;;
16928;SDS011;8581;47.334;11.190;2023-07-02T11:08:48;0.60;;;0.60;;
16928;SDS011;8581;47.334;11.190;2023-07-02T11:11:20;0.50;;;0.50;;
16928;SDS011;8581;47.334;11.190;2023-07-02T11:13:52;0.60;;;0.60;;
16928;SDS011;8581;47.334;11.190;2023-07-02T11:16:24;0.50;;;0.50;;
16928;SDS011;8581;47.334;11.190;2023-07-02T11:19:10;0.82;;;0.70;;
16928;SDS011;8581;47.334;11.190;2023-07-02T11:21:51;0.60;;;0.60;;
16928;SDS011;8581;47.334;11.190;2023-07-02T11:24:13;0.50;;;0.50;;
16928;SDS011;8581;47.334;11.190;2023-07-02T11:26:44;0.60;;;0.60;;
16928;SDS011;8581;47.334;11.190;2023-07-02T11:29:19;0.65;;;0.65;;
16928;SDS011;8581;47.334;11.190;2023-07-02T11:31:50;0.75;;;0.75;;
16928;SDS011;8581;47.334;11.190;2023-07-02T11:34:22;0.60;;;0.60;;
16928;SDS011;8581;47.334;11.190;2023-07-02T11:36:54;0.80;;;0.80;;
16928;SDS011;8581;47.334;11.190;2023-07-02T11:39:25;0.70;;;0.70;;
16928;SDS011;8581;47.334;11.190;2023-07-02T11:41:57;1.80;;;0.70;;
16928;SDS011;8581;47.334;11.190;2023-07-02T11:44:28;0.78;;;0.78;;
16928;SDS011;8581;47.334;11.190;2023-07-02T11:47:00;0.75;;;0.75;;
16928;SDS011;8581;47.334;11.190;2023-07-02T11:49:32;0.98;;;0.90;;
16928;SDS011;8581;47.334;11.190;2023-07-02T11:52:03;0.80;;;0.80;;
16928;SDS011;8581;47.334;11.190;2023-07-02T11:54:35;0.90;;;0.90;;
16928;SDS011;8581;47.334;11.190;2023-07-02T11:57:07;0.60;;;0.60;;
16928;SDS011;8581;47.334;11.190;2023-07-02T11:59:38;0.60;;;0.60;;
16928;SDS011;8581;47.334;11.190;2023-07-02T12:02:10;1.05;;;1.00;;
16928;SDS011;8581;47.334;11.190;2023-07-02T12:04:42;1.22;;;1.12;;
16928;SDS011;8581;47.334;11.190;2023-07-02T12:07:13;1.30;;;1.20;;
16928;SDS011;8581;47.334;11.190;2023-07-02T12:09:45;1.37;;;1.27;;
16928;SDS011;8581;47.334;11.190;2023-07-02T12:12:16;1.50;;;1.40;;
16928;SDS011;8581;47.334;11.190;2023-07-02T12:14:48;1.00;;;1.00;;
16928;SDS011;8581;47.334;11.190;2023-07-02T12:17:19;0.80;;;0.80;;
16928;SDS011;8581;47.334;11.190;2023-07-02T12:19:52;1.25;;;1.15;;
16928;SDS011;8581;47.334;11.190;2023-07-02T12:22:26;1.57;;;1.47;;
16928;SDS011;8581;47.334;11.190;2023-07-02T12:24:58;1.90;;;1.80;;
16928;SDS011;8581;47.334;11.190;2023-07-02T12:27:29;1.90;;;1.80;;
16928;SDS011;8581;47.334;11.190;2023-07-02T12:30:01;2.02;;;1.82;;
16928;SDS011;8581;47.334;11.190;2023-07-02T12:32:32;2.35;;;2.15;;
16928;SDS011;8581;47.334;11.190;2023-07-02T12:35:04;2.00;;;1.90;;
16928;SDS011;8581;47.334;11.190;2023-07-02T12:37:43;2.40;;;2.20;;
16928;SDS011;8581;47.334;11.190;2023-07-02T12:40:14;3.27;;;2.00;;
16928;SDS011;8581;47.334;11.190;2023-07-02T12:42:46;2.30;;;2.10;;
16928;SDS011;8581;47.334;11.190;2023-07-02T12:45:17;2.70;;;2.40;;
16928;SDS011;8581;47.334;11.190;2023-07-02T12:47:48;2.90;;;2.30;;
16928;SDS011;8581;47.334;11.190;2023-07-02T12:50:20;2.65;;;2.12;;
16928;SDS011;8581;47.334;11.190;2023-07-02T12:52:51;1.87;;;1.77;;
16928;SDS011;8581;47.334;11.190;2023-07-02T12:55:23;2.27;;;2.08;;
16928;SDS011;8581;47.334;11.190;2023-07-02T12:57:55;2.47;;;2.27;;
16928;SDS011;8581;47.334;11.190;2023-07-02T13:00:26;1.90;;;1.80;;
16928;SDS011;8581;47.334;11.190;2023-07-02T13:02:58;1.30;;;1.20;;
16928;SDS011;8581;47.334;11.190;2023-07-02T13:05:29;2.05;;;1.90;;
16928;SDS011;8581;47.334;11.190;2023-07-02T13:08:01;1.77;;;1.67;;
16928;SDS011;8581;47.334;11.190;2023-07-02T13:10:33;2.70;;;1.95;;
16928;SDS011;8581;47.334;11.190;2023-07-02T13:13:04;1.80;;;1.70;;
16928;SDS011;8581;47.334;11.190;2023-07-02T13:15:36;1.98;;;1.62;;
16928;SDS011;8581;47.334;11.190;2023-07-02T13:18:07;2.05;;;1.55;;
16928;SDS011;8581;47.334;11.190;2023-07-02T13:20:39;1.90;;;1.80;;
16928;SDS011;8581;47.334;11.190;2023-07-02T13:23:11;1.75;;;1.65;;
16928;SDS011;8581;47.334;11.190;2023-07-02T13:25:42;1.77;;;1.67;;
16928;SDS011;8581;47.334;11.190;2023-07-02T13:28:14;4.12;;;2.12;;
16928;SDS011;8581;47.334;11.190;2023-07-02T13:30:45;2.20;;;1.92;;
16928;SDS011;8581;47.334;11.190;2023-07-02T13:33:17;2.05;;;1.95;;
16928;SDS011;8581;47.334;11.190;2023-07-02T13:35:49;2.00;;;1.82;;
16928;SDS011;8581;47.334;11.190;2023-07-02T13:38:20;2.02;;;1.92;;
16928;SDS011;8581;47.334;11.190;2023-07-02T13:40:52;1.95;;;1.85;;
16928;SDS011;8581;47.334;11.190;2023-07-02T13:43:25;2.47;;;2.27;;
16928;SDS011;8581;47.334;11.190;2023-07-02T13:45:56;2.50;;;1.90;;
16928;SDS011;8581;47.334;11.190;2023-07-02T13:48:28;3.52;;;2.22;;
16928;SDS011;8581;47.334;11.190;2023-07-02T13:51:00;1.70;;;1.60;;
16928;SDS011;8581;47.334;11.190;2023-07-02T13:53:31;2.00;;;1.90;;
16928;SDS011;8581;47.334;11.190;2023-07-02T13:56:03;2.05;;;1.85;;
16928;SDS011;8581;47.334;11.190;2023-07-02T14:01:16;2.00;;;1.90;;
16928;SDS011;8581;47.334;11.190;2023-07-02T14:03:49;2.05;;;1.95;;
16928;SDS011;8581;47.334;11.190;2023-07-02T14:06:21;1.95;;;1.82;;
16928;SDS011;8581;47.334;11.190;2023-07-02T14:08:52;2.30;;;1.90;;
16928;SDS011;8581;47.334;11.190;2023-07-02T14:11:24;2.52;;;2.30;;
16928;SDS011;8581;47.334;11.190;2023-07-02T14:13:55;2.40;;;2.20;;
16928;SDS011;8581;47.334;11.190;2023-07-02T14:16:27;3.05;;;2.20;;
16928;SDS011;8581;47.334;11.190;2023-07-02T14:18:58;2.37;;;2.17;;
16928;SDS011;8581;47.334;11.190;2023-07-02T14:21:30;2.50;;;2.30;;
16928;SDS011;8581;47.334;11.190;2023-07-02T14:24:02;2.95;;;2.50;;
16928;SDS011;8581;47.334;11.190;2023-07-02T14:26:36;2.55;;;2.35;;
16928;SDS011;8581;47.334;11.190;2023-07-02T14:29:08;2.62;;;2.30;;
16928;SDS011;8581;47.334;11.190;2023-07-02T14:31:40;2.85;;;2.40;;
16928;SDS011;8581;47.334;11.190;2023-07-02T14:34:12;2.75;;;2.55;;
16928;SDS011;8581;47.334;11.190;2023-07-02T14:36:43;2.60;;;2.40;;
16928;SDS011;8581;47.334;11.190;2023-07-02T14:39:15;2.37;;;2.17;;
16928;SDS011;8581;47.334;11.190;2023-07-02T14:41:47;3.15;;;2.40;;
16928;SDS011;8581;47.334;11.190;2023-07-02T14:44:18;3.00;;;2.70;;
16928;SDS011;8581;47.334;11.190;2023-07-02T14:46:50;2.77;;;2.58;;
16928;SDS011;8581;47.334;11.190;2023-07-02T14:49:21;3.65;;;2.40;;
16928;SDS011;8581;47.334;11.190;2023-07-02T14:51:53;4.55;;;2.60;;
16928;SDS011;8581;47.334;11.190;2023-07-02T14:54:25;2.35;;;2.15;;
16928;SDS011;8581;47.334;11.190;2023-07-02T14:56:56;2.70;;;2.50;;
16928;SDS011;8581;47.334;11.190;2023-07-02T14:59:28;2.50;;;2.30;;
16928;SDS011;8581;47.334;11.190;2023-07-02T15:02:00;2.55;;;2.35;;
16928;SDS011;8581;47.334;11.190;2023-07-02T15:04:32;2.42;;;2.22;;
16928;SDS011;8581;47.334;11.190;2023-07-02T15:07:04;2.77;;;2.50;;
16928;SDS011;8581;47.334;11.190;2023-07-02T15:09:36;3.52;;;2.65;;
16928;SDS011;8581;47.334;11.190;2023-07-02T15:12:07;2.60;;;2.40;;
16928;SDS011;8581;47.334;11.190;2023-07-02T15:14:39;2.60;;;2.40;;
16928;SDS011;8581;47.334;11.190;2023-07-02T15:17:11;2.50;;;2.30;;
16928;SDS011;8581;47.334;11.190;2023-07-02T15:19:42;3.58;;;2.40;;